sensor_id;sensor_type;location;lat;lon;timestamp;temperature;humidity
38910;DHT22;24676;51.360;12.354;2022-08-19T04:02:23;19.50;99.90
38910;DHT22;24676;51.360;12.354;2022-08-19T04:05:08;19.50;99.90
38910;DHT22;24676;51.360;12.354;2022-08-19T04:07:53;19.50;99.90
38910;DHT22;24676;51.360;12.354;2022-08-19T04:10:38;19.50;99.90
38910;DHT22;24676;51.360;12.354;2022-08-19T04:13:22;19.50;99.90
38910;DHT22;24676;51.360;12.354;2022-08-19T04:16:06;19.50;99.90
38910;DHT22;24676;51.360;12.354;2022-08-19T04:18:51;19.50;99.90
38910;DHT22;24676;51.360;12.354;2022-08-19T04:21:35;19.50;99.90
38910;DHT22;24676;51.360;12.354;2022-08-19T04:24:20;19.50;99.90
38910;DHT22;24676;51.360;12.354;2022-08-19T04:27:05;19.50;99.90
38910;DHT22;24676;51.360;12.354;2022-08-19T04:29:49;19.50;99.90
38910;DHT22;24676;51.360;12.354;2022-08-19T04:32:34;19.50;99.90
38910;DHT22;24676;51.360;12.354;2022-08-19T04:35:19;19.50;99.90
38910;DHT22;24676;51.360;12.354;2022-08-19T04:38:03;19.60;99.90
38910;DHT22;24676;51.360;12.354;2022-08-19T04:40:49;19.50;99.90
38910;DHT22;24676;51.360;12.354;2022-08-19T04:43:52;19.50;99.90
38910;DHT22;24676;51.360;12.354;2022-08-19T04:46:38;19.60;99.90
38910;DHT22;24676;51.360;12.354;2022-08-19T04:49:22;19.60;99.90
38910;DHT22;24676;51.360;12.354;2022-08-19T04:52:07;19.60;99.90
38910;DHT22;24676;51.360;12.354;2022-08-19T04:54:52;19.70;99.90
38910;DHT22;24676;51.360;12.354;2022-08-19T04:57:37;19.80;99.90
38910;DHT22;24676;51.360;12.354;2022-08-19T05:00:23;19.80;99.90
38910;DHT22;24676;51.360;12.354;2022-08-19T05:03:08;19.80;99.90
38910;DHT22;24676;51.360;12.354;2022-08-19T05:05:52;19.80;99.90
38910;DHT22;24676;51.360;12.354;2022-08-19T05:08:38;19.80;99.90
38910;DHT22;24676;51.360;12.354;2022-08-19T05:11:28;19.90;99.90
38910;DHT22;24676;51.360;12.354;2022-08-19T05:14:12;19.90;99.90
38910;DHT22;24676;51.360;12.354;2022-08-19T05:16:57;19.90;99.90
38910;DHT22;24676;51.360;12.354;2022-08-19T05:19:41;19.90;99.90
38910;DHT22;24676;51.360;12.354;2022-08-19T05:22:51;19.90;99.90
38910;DHT22;24676;51.360;12.354;2022-08-19T05:25:39;19.90;99.90
38910;DHT22;24676;51.360;12.354;2022-08-19T05:28:24;19.90;99.90
38910;DHT22;24676;51.360;12.354;2022-08-19T05:31:08;19.90;99.90
38910;DHT22;24676;51.360;12.354;2022-08-19T05:33:52;19.90;99.90
38910;DHT22;24676;51.360;12.354;2022-08-19T05:36:39;19.90;99.90
38910;DHT22;24676;51.360;12.354;2022-08-19T05:39:27;20.00;99.90
38910;DHT22;24676;51.360;12.354;2022-08-19T05:42:12;19.90;99.90
38910;DHT22;24676;51.360;12.354;2022-08-19T05:44:57;20.00;99.90
38910;DHT22;24676;51.360;12.354;2022-08-19T05:47:41;20.00;99.90
38910;DHT22;24676;51.360;12.354;2022-08-19T05:50:26;20.00;99.90
38910;DHT22;24676;51.360;12.354;2022-08-19T05:53:10;20.00;99.90
38910;DHT22;24676;51.360;12.354;2022-08-19T05:55:54;20.00;99.90
38910;DHT22;24676;51.360;12.354;2022-08-19T05:58:38;20.00;99.90
38910;DHT22;24676;51.360;12.354;2022-08-19T06:01:23;20.10;99.90
38910;DHT22;24676;51.360;12.354;2022-08-19T06:04:08;20.10;99.90
38910;DHT22;24676;51.360;12.354;2022-08-19T06:06:53;20.00;99.90
38910;DHT22;24676;51.360;12.354;2022-08-19T06:09:37;20.10;99.90
38910;DHT22;24676;51.360;12.354;2022-08-19T06:12:21;20.10;99.90
38910;DHT22;24676;51.360;12.354;2022-08-19T06:15:13;20.10;99.90
38910;DHT22;24676;51.360;12.354;2022-08-19T06:17:57;20.20;99.90
38910;DHT22;24676;51.360;12.354;2022-08-19T06:20:42;20.30;99.90
38910;DHT22;24676;51.360;12.354;2022-08-19T06:23:26;20.30;99.90
38910;DHT22;24676;51.360;12.354;2022-08-19T06:26:15;20.30;99.90
38910;DHT22;24676;51.360;12.354;2022-08-19T06:28:59;20.40;99.90
38910;DHT22;24676;51.360;12.354;2022-08-19T06:31:46;20.40;99.90
38910;DHT22;24676;51.360;12.354;2022-08-19T06:34:32;20.40;99.90
38910;DHT22;24676;51.360;12.354;2022-08-19T06:37:17;20.40;99.90
38910;DHT22;24676;51.360;12.354;2022-08-19T06:40:02;20.40;99.90
38910;DHT22;24676;51.360;12.354;2022-08-19T06:42:46;20.40;99.90
38910;DHT22;24676;51.360;12.354;2022-08-19T06:45:31;20.40;99.90
38910;DHT22;24676;51.360;12.354;2022-08-19T06:48:15;20.30;99.90
38910;DHT22;24676;51.360;12.354;2022-08-19T06:50:59;20.30;99.90
38910;DHT22;24676;51.360;12.354;2022-08-19T06:53:45;20.30;99.90
38910;DHT22;24676;51.360;12.354;2022-08-19T06:56:31;20.20;99.90
38910;DHT22;24676;51.360;12.354;2022-08-19T06:59:20;20.10;99.90
38910;DHT22;24676;51.360;12.354;2022-08-19T07:02:06;20.10;99.90
38910;DHT22;24676;51.360;12.354;2022-08-19T07:04:51;20.10;99.90
38910;DHT22;24676;51.360;12.354;2022-08-19T07:07:35;20.10;99.90
38910;DHT22;24676;51.360;12.354;2022-08-19T07:10:19;20.10;99.90
38910;DHT22;24676;51.360;12.354;2022-08-19T07:13:04;20.10;99.90
38910;DHT22;24676;51.360;12.354;2022-08-19T07:15:49;20.00;99.90
38910;DHT22;24676;51.360;12.354;2022-08-19T07:18:35;20.00;99.90
38910;DHT22;24676;51.360;12.354;2022-08-19T07:21:23;19.90;99.90
38910;DHT22;24676;51.360;12.354;2022-08-19T07:24:08;19.90;99.90
38910;DHT22;24676;51.360;12.354;2022-08-19T07:26:55;19.90;99.90
38910;DHT22;24676;51.360;12.354;2022-08-19T07:29:40;19.90;99.90
38910;DHT22;24676;51.360;12.354;2022-08-19T07:32:25;19.90;99.90
38910;DHT22;24676;51.360;12.354;2022-08-19T07:35:13;19.90;99.90
38910;DHT22;24676;51.360;12.354;2022-08-19T07:37:57;19.90;99.90
38910;DHT22;24676;51.360;12.354;2022-08-19T07:40:42;20.00;99.90
38910;DHT22;24676;51.360;12.354;2022-08-19T07:43:28;20.00;99.90
38910;DHT22;24676;51.360;12.354;2022-08-19T07:46:13;20.00;99.90
38910;DHT22;24676;51.360;12.354;2022-08-19T07:48:58;20.00;99.90
38910;DHT22;24676;51.360;12.354;2022-08-19T07:51:43;20.10;99.90
38910;DHT22;24676;51.360;12.354;2022-08-19T07:54:29;20.10;99.90
38910;DHT22;24676;51.360;12.354;2022-08-19T07:57:14;20.10;99.90
38910;DHT22;24676;51.360;12.354;2022-08-19T07:59:58;20.10;99.90
38910;DHT22;24676;51.360;12.354;2022-08-19T08:02:43;20.10;99.90
38910;DHT22;24676;51.360;12.354;2022-08-19T08:05:27;20.10;99.90
38910;DHT22;24676;51.360;12.354;2022-08-19T08:08:30;20.20;99.90
38910;DHT22;24676;51.360;12.354;2022-08-19T08:11:33;20.30;99.90
38910;DHT22;24676;51.360;12.354;2022-08-19T08:14:20;20.30;99.90
38910;DHT22;24676;51.360;12.354;2022-08-19T08:17:06;20.40;99.90
38910;DHT22;24676;51.360;12.354;2022-08-19T08:19:50;20.30;99.90
38910;DHT22;24676;51.360;12.354;2022-08-19T08:22:35;20.40;99.90
38910;DHT22;24676;51.360;12.354;2022-08-19T08:25:40;20.50;99.90
38910;DHT22;24676;51.360;12.354;2022-08-19T08:28:26;20.60;99.90
38910;DHT22;24676;51.360;12.354;2022-08-19T08:31:11;20.60;99.90
38910;DHT22;24676;51.360;12.354;2022-08-19T08:33:55;20.60;99.90
38910;DHT22;24676;51.360;12.354;2022-08-19T08:36:43;20.70;99.90
38910;DHT22;24676;51.360;12.354;2022-08-19T08:39:29;20.60;99.90
38910;DHT22;24676;51.360;12.354;2022-08-19T08:42:28;20.60;99.90
38910;DHT22;24676;51.360;12.354;2022-08-19T08:45:16;20.50;99.90
38910;DHT22;24676;51.360;12.354;2022-08-19T08:48:16;20.40;99.90
38910;DHT22;24676;51.360;12.354;2022-08-19T08:51:07;20.50;99.90
38910;DHT22;24676;51.360;12.354;2022-08-19T08:53:54;20.40;99.90
38910;DHT22;24676;51.360;12.354;2022-08-19T08:56:41;20.30;99.90
38910;DHT22;24676;51.360;12.354;2022-08-19T08:59:30;20.30;99.90
38910;DHT22;24676;51.360;12.354;2022-08-19T09:02:17;20.30;99.90
38910;DHT22;24676;51.360;12.354;2022-08-19T09:05:02;20.30;99.90
38910;DHT22;24676;51.360;12.354;2022-08-19T09:08:07;20.30;99.90
38910;DHT22;24676;51.360;12.354;2022-08-19T09:10:54;20.30;99.90
38910;DHT22;24676;51.360;12.354;2022-08-19T09:16:51;20.50;99.90
38910;DHT22;24676;51.360;12.354;2022-08-19T09:22:40;20.80;99.90
38910;DHT22;24676;51.360;12.354;2022-08-19T09:25:24;21.10;99.90
38910;DHT22;24676;51.360;12.354;2022-08-19T09:28:09;21.30;99.90
38910;DHT22;24676;51.360;12.354;2022-08-19T09:30:54;21.50;99.90
38910;DHT22;24676;51.360;12.354;2022-08-19T09:33:38;21.40;99.90
38910;DHT22;24676;51.360;12.354;2022-08-19T09:36:24;21.30;99.90
38910;DHT22;24676;51.360;12.354;2022-08-19T09:39:09;21.30;99.90
38910;DHT22;24676;51.360;12.354;2022-08-19T09:41:54;21.30;99.90
38910;DHT22;24676;51.360;12.354;2022-08-19T09:44:39;21.20;99.90
38910;DHT22;24676;51.360;12.354;2022-08-19T09:47:23;21.20;99.90
38910;DHT22;24676;51.360;12.354;2022-08-19T09:50:10;21.20;99.90
38910;DHT22;24676;51.360;12.354;2022-08-19T09:52:54;21.20;99.90
38910;DHT22;24676;51.360;12.354;2022-08-19T09:55:44;21.30;99.90
38910;DHT22;24676;51.360;12.354;2022-08-19T09:58:28;21.40;99.90
38910;DHT22;24676;51.360;12.354;2022-08-19T10:01:22;21.40;99.90
38910;DHT22;24676;51.360;12.354;2022-08-19T10:04:07;21.50;99.90
38910;DHT22;24676;51.360;12.354;2022-08-19T10:06:55;21.50;99.90
38910;DHT22;24676;51.360;12.354;2022-08-19T10:09:40;21.60;99.90
38910;DHT22;24676;51.360;12.354;2022-08-19T10:12:25;22.00;99.90
38910;DHT22;24676;51.360;12.354;2022-08-19T10:15:09;22.30;99.90
38910;DHT22;24676;51.360;12.354;2022-08-19T10:17:53;22.60;99.90
38910;DHT22;24676;51.360;12.354;2022-08-19T10:20:38;23.10;99.90
38910;DHT22;24676;51.360;12.354;2022-08-19T10:23:22;23.30;99.90
38910;DHT22;24676;51.360;12.354;2022-08-19T10:26:07;23.30;99.90
38910;DHT22;24676;51.360;12.354;2022-08-19T10:28:52;23.60;99.90
38910;DHT22;24676;51.360;12.354;2022-08-19T10:31:37;23.80;99.90
38910;DHT22;24676;51.360;12.354;2022-08-19T10:34:21;24.00;99.90
38910;DHT22;24676;51.360;12.354;2022-08-19T10:37:06;24.00;99.90
38910;DHT22;24676;51.360;12.354;2022-08-19T10:39:51;24.20;99.90
38910;DHT22;24676;51.360;12.354;2022-08-19T10:42:36;24.10;99.90
38910;DHT22;24676;51.360;12.354;2022-08-19T10:45:21;24.00;99.90
38910;DHT22;24676;51.360;12.354;2022-08-19T10:48:07;24.00;99.90
38910;DHT22;24676;51.360;12.354;2022-08-19T10:50:51;23.70;99.90
38910;DHT22;24676;51.360;12.354;2022-08-19T10:53:55;23.40;99.90
38910;DHT22;24676;51.360;12.354;2022-08-19T10:56:40;23.10;99.90
38910;DHT22;24676;51.360;12.354;2022-08-19T10:59:36;22.70;99.90
38910;DHT22;24676;51.360;12.354;2022-08-19T11:02:21;22.50;99.90
38910;DHT22;24676;51.360;12.354;2022-08-19T11:05:06;22.60;99.90
38910;DHT22;24676;51.360;12.354;2022-08-19T11:07:51;22.60;99.90
38910;DHT22;24676;51.360;12.354;2022-08-19T11:10:36;22.70;99.90
38910;DHT22;24676;51.360;12.354;2022-08-19T11:13:20;22.80;99.90
38910;DHT22;24676;51.360;12.354;2022-08-19T11:16:11;22.90;99.90
38910;DHT22;24676;51.360;12.354;2022-08-19T11:18:58;23.20;99.90
38910;DHT22;24676;51.360;12.354;2022-08-19T11:21:45;23.50;99.90
38910;DHT22;24676;51.360;12.354;2022-08-19T11:24:30;23.70;99.90
38910;DHT22;24676;51.360;12.354;2022-08-19T11:27:15;23.80;99.90
38910;DHT22;24676;51.360;12.354;2022-08-19T11:29:59;23.70;99.90
38910;DHT22;24676;51.360;12.354;2022-08-19T11:32:44;23.50;99.90
38910;DHT22;24676;51.360;12.354;2022-08-19T11:35:29;23.40;99.90
38910;DHT22;24676;51.360;12.354;2022-08-19T11:38:13;23.40;99.90
38910;DHT22;24676;51.360;12.354;2022-08-19T11:41:01;23.80;99.90
38910;DHT22;24676;51.360;12.354;2022-08-19T11:43:48;24.00;99.90
38910;DHT22;24676;51.360;12.354;2022-08-19T11:46:34;24.20;99.90
38910;DHT22;24676;51.360;12.354;2022-08-19T11:49:19;24.30;99.90
38910;DHT22;24676;51.360;12.354;2022-08-19T11:52:05;24.40;99.90
38910;DHT22;24676;51.360;12.354;2022-08-19T11:54:49;24.30;99.90
38910;DHT22;24676;51.360;12.354;2022-08-19T11:57:34;24.20;99.90
38910;DHT22;24676;51.360;12.354;2022-08-19T12:00:18;24.20;99.90
38910;DHT22;24676;51.360;12.354;2022-08-19T12:03:02;24.30;99.90
38910;DHT22;24676;51.360;12.354;2022-08-19T12:05:47;24.20;99.90
38910;DHT22;24676;51.360;12.354;2022-08-19T12:08:31;24.40;99.90
38910;DHT22;24676;51.360;12.354;2022-08-19T12:11:16;24.70;99.90
38910;DHT22;24676;51.360;12.354;2022-08-19T12:14:00;25.00;99.90
38910;DHT22;24676;51.360;12.354;2022-08-19T12:16:45;25.40;99.90
38910;DHT22;24676;51.360;12.354;2022-08-19T12:19:30;25.70;99.90
38910;DHT22;24676;51.360;12.354;2022-08-19T12:22:14;26.40;99.90
38910;DHT22;24676;51.360;12.354;2022-08-19T12:24:58;27.00;99.90
38910;DHT22;24676;51.360;12.354;2022-08-19T12:27:42;27.10;97.60
38910;DHT22;24676;51.360;12.354;2022-08-19T12:30:27;27.10;97.50
38910;DHT22;24676;51.360;12.354;2022-08-19T12:33:11;27.10;98.70
38910;DHT22;24676;51.360;12.354;2022-08-19T12:36:03;27.40;96.30
38910;DHT22;24676;51.360;12.354;2022-08-19T12:38:48;27.70;95.00
38910;DHT22;24676;51.360;12.354;2022-08-19T12:41:33;27.50;93.40
38910;DHT22;24676;51.360;12.354;2022-08-19T12:44:21;27.30;93.30
38910;DHT22;24676;51.360;12.354;2022-08-19T12:47:06;27.30;92.90
38910;DHT22;24676;51.360;12.354;2022-08-19T12:49:50;27.90;92.60
38910;DHT22;24676;51.360;12.354;2022-08-19T12:52:36;28.60;90.50
38910;DHT22;24676;51.360;12.354;2022-08-19T12:55:21;28.70;88.00
38910;DHT22;24676;51.360;12.354;2022-08-19T12:58:05;28.90;86.00
38910;DHT22;24676;51.360;12.354;2022-08-19T13:00:50;28.70;84.00
38910;DHT22;24676;51.360;12.354;2022-08-19T13:03:34;28.30;85.30
38910;DHT22;24676;51.360;12.354;2022-08-19T13:06:18;28.00;85.80
38910;DHT22;24676;51.360;12.354;2022-08-19T13:09:03;27.80;87.30
38910;DHT22;24676;51.360;12.354;2022-08-19T13:11:48;27.40;88.80
38910;DHT22;24676;51.360;12.354;2022-08-19T13:14:34;27.20;91.20
38910;DHT22;24676;51.360;12.354;2022-08-19T13:17:19;27.10;92.70
38910;DHT22;24676;51.360;12.354;2022-08-19T13:20:04;27.10;91.30
38910;DHT22;24676;51.360;12.354;2022-08-19T13:22:51;26.90;91.70
38910;DHT22;24676;51.360;12.354;2022-08-19T13:25:35;26.60;93.10
38910;DHT22;24676;51.360;12.354;2022-08-19T13:28:20;26.10;96.00
38910;DHT22;24676;51.360;12.354;2022-08-19T13:31:04;25.70;99.30
38910;DHT22;24676;51.360;12.354;2022-08-19T13:34:08;25.40;99.90
38910;DHT22;24676;51.360;12.354;2022-08-19T13:36:53;25.20;99.90
38910;DHT22;24676;51.360;12.354;2022-08-19T13:39:37;25.10;99.90
38910;DHT22;24676;51.360;12.354;2022-08-19T13:42:21;24.90;99.90
38910;DHT22;24676;51.360;12.354;2022-08-19T13:45:05;24.80;99.90
38910;DHT22;24676;51.360;12.354;2022-08-19T13:47:52;24.50;99.90
38910;DHT22;24676;51.360;12.354;2022-08-19T13:50:41;24.40;99.90
38910;DHT22;24676;51.360;12.354;2022-08-19T13:53:26;24.20;99.90
38910;DHT22;24676;51.360;12.354;2022-08-19T13:56:13;24.00;99.90
38910;DHT22;24676;51.360;12.354;2022-08-19T13:58:57;23.80;99.90
38910;DHT22;24676;51.360;12.354;2022-08-19T14:01:41;23.60;99.90
38910;DHT22;24676;51.360;12.354;2022-08-19T14:04:25;23.40;99.90
38910;DHT22;24676;51.360;12.354;2022-08-19T14:07:10;23.40;99.90
38910;DHT22;24676;51.360;12.354;2022-08-19T14:09:54;23.20;99.90
38910;DHT22;24676;51.360;12.354;2022-08-19T14:12:38;23.20;99.90
38910;DHT22;24676;51.360;12.354;2022-08-19T14:15:22;23.10;99.90
38910;DHT22;24676;51.360;12.354;2022-08-19T14:18:07;23.10;99.90
38910;DHT22;24676;51.360;12.354;2022-08-19T14:20:52;23.10;99.90
38910;DHT22;24676;51.360;12.354;2022-08-19T14:23:37;23.10;99.90
38910;DHT22;24676;51.360;12.354;2022-08-19T14:26:22;23.20;99.90
38910;DHT22;24676;51.360;12.354;2022-08-19T14:29:06;23.20;99.90
38910;DHT22;24676;51.360;12.354;2022-08-19T14:31:51;23.30;99.90
38910;DHT22;24676;51.360;12.354;2022-08-19T14:34:35;23.30;99.90
38910;DHT22;24676;51.360;12.354;2022-08-19T14:37:21;23.30;99.90
38910;DHT22;24676;51.360;12.354;2022-08-19T14:40:06;23.30;99.90
38910;DHT22;24676;51.360;12.354;2022-08-19T14:42:54;23.30;99.90
38910;DHT22;24676;51.360;12.354;2022-08-19T14:45:47;23.40;99.90
38910;DHT22;24676;51.360;12.354;2022-08-19T14:48:32;23.60;99.90
38910;DHT22;24676;51.360;12.354;2022-08-19T14:51:17;23.80;99.90
38910;DHT22;24676;51.360;12.354;2022-08-19T14:54:02;24.10;99.90
38910;DHT22;24676;51.360;12.354;2022-08-19T14:56:46;24.00;99.90
38910;DHT22;24676;51.360;12.354;2022-08-19T14:59:31;24.00;99.90
38910;DHT22;24676;51.360;12.354;2022-08-19T15:02:16;23.90;99.90
38910;DHT22;24676;51.360;12.354;2022-08-19T15:05:00;24.00;99.90
38910;DHT22;24676;51.360;12.354;2022-08-19T15:07:45;23.90;99.90
38910;DHT22;24676;51.360;12.354;2022-08-19T15:10:29;24.00;99.90
38910;DHT22;24676;51.360;12.354;2022-08-19T15:13:13;23.90;99.90
38910;DHT22;24676;51.360;12.354;2022-08-19T15:15:58;23.90;99.90
38910;DHT22;24676;51.360;12.354;2022-08-19T15:18:42;23.80;99.90
38910;DHT22;24676;51.360;12.354;2022-08-19T15:21:28;23.70;99.90
38910;DHT22;24676;51.360;12.354;2022-08-19T15:24:13;23.60;99.90
38910;DHT22;24676;51.360;12.354;2022-08-19T15:26:57;23.40;99.90
38910;DHT22;24676;51.360;12.354;2022-08-19T15:29:41;23.20;99.90
38910;DHT22;24676;51.360;12.354;2022-08-19T15:32:26;23.20;99.90
38910;DHT22;24676;51.360;12.354;2022-08-19T15:35:11;23.10;99.90
38910;DHT22;24676;51.360;12.354;2022-08-19T15:37:56;22.90;99.90
38910;DHT22;24676;51.360;12.354;2022-08-19T15:40:41;22.90;99.90
38910;DHT22;24676;51.360;12.354;2022-08-19T15:43:26;22.90;99.90
38910;DHT22;24676;51.360;12.354;2022-08-19T15:46:11;23.00;99.90
38910;DHT22;24676;51.360;12.354;2022-08-19T15:48:56;23.00;99.90
38910;DHT22;24676;51.360;12.354;2022-08-19T15:51:41;23.00;99.90
38910;DHT22;24676;51.360;12.354;2022-08-19T15:54:26;23.00;99.90
38910;DHT22;24676;51.360;12.354;2022-08-19T15:57:11;23.10;99.90
38910;DHT22;24676;51.360;12.354;2022-08-19T16:00:10;23.10;99.90
38910;DHT22;24676;51.360;12.354;2022-08-19T16:03:14;23.20;99.90
38910;DHT22;24676;51.360;12.354;2022-08-19T16:06:17;23.30;99.90
38910;DHT22;24676;51.360;12.354;2022-08-19T16:09:10;23.30;99.90
38910;DHT22;24676;51.360;12.354;2022-08-19T16:12:00;23.30;99.90
38910;DHT22;24676;51.360;12.354;2022-08-19T16:14:44;23.30;99.90
38910;DHT22;24676;51.360;12.354;2022-08-19T16:17:30;23.20;99.90
38910;DHT22;24676;51.360;12.354;2022-08-19T16:20:14;23.00;99.90
38910;DHT22;24676;51.360;12.354;2022-08-19T16:23:03;22.90;99.90
38910;DHT22;24676;51.360;12.354;2022-08-19T16:25:47;22.80;99.90
38910;DHT22;24676;51.360;12.354;2022-08-19T16:28:32;22.80;99.90
38910;DHT22;24676;51.360;12.354;2022-08-19T16:31:16;22.70;99.90
38910;DHT22;24676;51.360;12.354;2022-08-19T16:34:01;22.70;99.90
38910;DHT22;24676;51.360;12.354;2022-08-19T16:36:45;22.70;99.90
38910;DHT22;24676;51.360;12.354;2022-08-19T16:39:29;22.60;99.90
38910;DHT22;24676;51.360;12.354;2022-08-19T16:42:13;22.60;99.90
38910;DHT22;24676;51.360;12.354;2022-08-19T16:44:58;22.60;99.90
38910;DHT22;24676;51.360;12.354;2022-08-19T16:47:42;22.60;99.90
38910;DHT22;24676;51.360;12.354;2022-08-19T16:50:26;22.60;99.90
38910;DHT22;24676;51.360;12.354;2022-08-19T16:53:11;22.60;99.90
38910;DHT22;24676;51.360;12.354;2022-08-19T16:55:55;22.60;99.90
38910;DHT22;24676;51.360;12.354;2022-08-19T16:58:40;22.50;99.90
38910;DHT22;24676;51.360;12.354;2022-08-19T17:01:26;22.50;99.90
38910;DHT22;24676;51.360;12.354;2022-08-19T17:04:11;22.40;99.90
38910;DHT22;24676;51.360;12.354;2022-08-19T17:06:56;22.30;99.90
38910;DHT22;24676;51.360;12.354;2022-08-19T17:09:40;22.20;99.90
38910;DHT22;24676;51.360;12.354;2022-08-19T17:12:24;22.20;99.90
38910;DHT22;24676;51.360;12.354;2022-08-19T17:15:09;22.10;99.90
38910;DHT22;24676;51.360;12.354;2022-08-19T17:17:58;22.00;99.90
38910;DHT22;24676;51.360;12.354;2022-08-19T17:20:43;22.00;99.90
38910;DHT22;24676;51.360;12.354;2022-08-19T17:23:30;21.90;99.90
38910;DHT22;24676;51.360;12.354;2022-08-19T17:26:16;21.90;99.90
38910;DHT22;24676;51.360;12.354;2022-08-19T17:29:00;21.90;99.90
38910;DHT22;24676;51.360;12.354;2022-08-19T17:31:44;21.80;99.90
38910;DHT22;24676;51.360;12.354;2022-08-19T17:34:29;21.80;99.90
38910;DHT22;24676;51.360;12.354;2022-08-19T17:37:13;21.80;99.90
38910;DHT22;24676;51.360;12.354;2022-08-19T17:39:58;21.70;99.90
38910;DHT22;24676;51.360;12.354;2022-08-19T17:42:42;21.60;99.90
38910;DHT22;24676;51.360;12.354;2022-08-19T17:45:27;21.50;99.90
38910;DHT22;24676;51.360;12.354;2022-08-19T17:48:11;21.50;99.90
38910;DHT22;24676;51.360;12.354;2022-08-19T17:50:56;21.40;99.90
38910;DHT22;24676;51.360;12.354;2022-08-19T17:53:40;21.40;99.90
38910;DHT22;24676;51.360;12.354;2022-08-19T17:56:24;21.40;99.90
38910;DHT22;24676;51.360;12.354;2022-08-19T17:59:12;21.40;99.90
38910;DHT22;24676;51.360;12.354;2022-08-19T18:01:56;21.30;99.90
38910;DHT22;24676;51.360;12.354;2022-08-19T18:04:40;21.30;99.90
38910;DHT22;24676;51.360;12.354;2022-08-19T18:07:25;21.30;99.90
38910;DHT22;24676;51.360;12.354;2022-08-19T18:10:09;21.30;99.90
38910;DHT22;24676;51.360;12.354;2022-08-19T18:12:54;21.20;99.90
38910;DHT22;24676;51.360;12.354;2022-08-19T18:15:38;21.20;99.90
38910;DHT22;24676;51.360;12.354;2022-08-19T18:18:23;21.20;99.90
38910;DHT22;24676;51.360;12.354;2022-08-19T18:21:08;21.10;99.90
38910;DHT22;24676;51.360;12.354;2022-08-19T18:23:52;21.00;99.90
38910;DHT22;24676;51.360;12.354;2022-08-19T18:26:36;20.90;99.90
38910;DHT22;24676;51.360;12.354;2022-08-19T18:29:21;20.90;99.90
38910;DHT22;24676;51.360;12.354;2022-08-19T18:32:06;20.80;99.90
38910;DHT22;24676;51.360;12.354;2022-08-19T18:34:56;20.70;99.90
38910;DHT22;24676;51.360;12.354;2022-08-19T18:37:41;20.70;99.90
38910;DHT22;24676;51.360;12.354;2022-08-19T18:40:27;20.70;99.90
38910;DHT22;24676;51.360;12.354;2022-08-19T18:43:30;20.60;99.90
38910;DHT22;24676;51.360;12.354;2022-08-19T18:46:33;20.60;99.90
38910;DHT22;24676;51.360;12.354;2022-08-19T18:49:36;20.50;99.90
38910;DHT22;24676;51.360;12.354;2022-08-19T18:52:21;20.50;99.90
38910;DHT22;24676;51.360;12.354;2022-08-19T18:55:08;20.40;99.90
38910;DHT22;24676;51.360;12.354;2022-08-19T18:57:52;20.40;99.90
38910;DHT22;24676;51.360;12.354;2022-08-19T19:00:36;20.40;99.90
38910;DHT22;24676;51.360;12.354;2022-08-19T19:03:20;20.40;99.90
38910;DHT22;24676;51.360;12.354;2022-08-19T19:06:06;20.40;99.90
38910;DHT22;24676;51.360;12.354;2022-08-19T19:08:52;20.40;99.90
38910;DHT22;24676;51.360;12.354;2022-08-19T19:11:40;20.40;99.90
38910;DHT22;24676;51.360;12.354;2022-08-19T19:14:28;20.40;99.90
38910;DHT22;24676;51.360;12.354;2022-08-19T19:17:14;20.40;99.90
38910;DHT22;24676;51.360;12.354;2022-08-19T19:19:58;20.30;99.90
38910;DHT22;24676;51.360;12.354;2022-08-19T19:22:42;20.30;99.90
38910;DHT22;24676;51.360;12.354;2022-08-19T19:25:27;20.30;99.90
38910;DHT22;24676;51.360;12.354;2022-08-19T19:28:11;20.30;99.90
38910;DHT22;24676;51.360;12.354;2022-08-19T19:30:56;20.30;99.90
38910;DHT22;24676;51.360;12.354;2022-08-19T19:33:41;20.20;99.90
38910;DHT22;24676;51.360;12.354;2022-08-19T19:36:25;20.20;99.90
38910;DHT22;24676;51.360;12.354;2022-08-19T19:39:10;20.20;99.90
38910;DHT22;24676;51.360;12.354;2022-08-19T19:41:54;20.20;99.90
38910;DHT22;24676;51.360;12.354;2022-08-19T19:44:39;20.20;99.90
38910;DHT22;24676;51.360;12.354;2022-08-19T19:47:23;20.20;99.90
38910;DHT22;24676;51.360;12.354;2022-08-19T19:50:09;20.20;99.90
38910;DHT22;24676;51.360;12.354;2022-08-19T19:52:53;20.10;99.90
38910;DHT22;24676;51.360;12.354;2022-08-19T19:55:37;20.10;99.90
38910;DHT22;24676;51.360;12.354;2022-08-19T19:58:25;20.00;99.90
38910;DHT22;24676;51.360;12.354;2022-08-19T20:01:09;20.00;99.90
38910;DHT22;24676;51.360;12.354;2022-08-19T20:03:55;20.00;99.90
38910;DHT22;24676;51.360;12.354;2022-08-19T20:06:42;20.00;99.90
38910;DHT22;24676;51.360;12.354;2022-08-19T20:09:26;20.00;99.90
38910;DHT22;24676;51.360;12.354;2022-08-19T20:12:10;20.00;99.90
38910;DHT22;24676;51.360;12.354;2022-08-19T20:14:54;20.00;99.90
38910;DHT22;24676;51.360;12.354;2022-08-19T20:17:39;20.00;99.90
38910;DHT22;24676;51.360;12.354;2022-08-19T20:20:25;20.00;99.90
38910;DHT22;24676;51.360;12.354;2022-08-19T20:23:09;20.00;99.90
38910;DHT22;24676;51.360;12.354;2022-08-19T20:25:53;20.00;99.90
38910;DHT22;24676;51.360;12.354;2022-08-19T20:28:37;20.00;99.90
38910;DHT22;24676;51.360;12.354;2022-08-19T20:31:22;20.00;99.90
38910;DHT22;24676;51.360;12.354;2022-08-19T20:34:06;20.00;99.90
38910;DHT22;24676;51.360;12.354;2022-08-19T20:36:51;20.00;99.90
38910;DHT22;24676;51.360;12.354;2022-08-19T20:39:36;20.00;99.90
38910;DHT22;24676;51.360;12.354;2022-08-19T20:42:20;20.00;99.90
38910;DHT22;24676;51.360;12.354;2022-08-19T20:45:09;20.00;99.90
38910;DHT22;24676;51.360;12.354;2022-08-19T20:47:54;20.00;99.90
38910;DHT22;24676;51.360;12.354;2022-08-19T20:50:38;20.00;99.90
38910;DHT22;24676;51.360;12.354;2022-08-19T20:53:24;19.90;99.90
38910;DHT22;24676;51.360;12.354;2022-08-19T20:56:10;19.90;99.90
38910;DHT22;24676;51.360;12.354;2022-08-19T20:58:54;19.90;99.90
